Time;durP1;ratioP1;P1;durP2;ratioP2;P2;SDS_P1;SDS_P2;PMS_P1;PMS_P2;Temp;Humidity;BMP_temperature;BMP_pressure;BME280_temperature;BME280_humidity;BME280_pressure;Samples;Min_cycle;Max_cycle;Signal;HPM_P1;HPM_P2
2023/12/19 02:07:53;;;;;;;;;;;;;;;;;;697137;19;943684333;31
2023/12/19 02:10:18;;;;;;;35.55;20.02;;;;;;;;;;7344508;19;20376;-81
2023/12/19 02:12:43;;;;;;;31.48;20.77;;;;;;;;;;7304758;19;20015;-80
2023/12/19 02:15:09;;;;;;;33.63;21.00;;;;;;;;;;7323372;19;20013;-83
2023/12/19 02:17:34;;;;;;;33.67;20.52;;;;;;;;;;7350277;19;20058;-80
2023/12/19 02:19:59;;;;;;;36.72;21.52;;;;;;;;;;7347187;19;20006;-84
2023/12/19 02:22:25;;;;;;;44.38;23.25;;;;;;;;;;7361428;19;20085;-80
2023/12/19 02:24:50;;;;;;;37.80;22.90;;;;;;;;;;7352390;19;20019;-84
2023/12/19 02:27:16;;;;;;;37.05;22.08;;;;;;;;;;7352315;19;20011;-84
2023/12/19 02:29:41;;;;;;;40.88;23.70;;;;;;;;;;7342973;19;20275;-80
2023/12/19 02:32:07;;;;;;;38.55;22.48;;;;;;;;;;7359789;19;20002;-81
2023/12/19 02:34:32;;;;;;;40.28;23.17;;;;;;;;;;7351359;19;20279;-77
2023/12/19 02:36:57;;;;;;;38.40;22.83;;;;;;;;;;7364197;19;20101;-85
2023/12/19 02:39:22;;;;;;;35.97;22.77;;;;;;;;;;7359635;19;20071;-82
2023/12/19 02:41:47;;;;;;;35.47;21.17;;;;;;;;;;7356272;19;20605;-81
2023/12/19 02:44:13;;;;;;;37.72;21.77;;;;;;;;;;7342505;19;20007;-87
2023/12/19 02:46:38;;;;;;;38.78;22.38;;;;;;;;;;7353396;19;19998;-81
2023/12/19 02:49:03;;;;;;;36.75;21.92;;;;;;;;;;7357360;19;20186;-79
2023/12/19 02:51:29;;;;;;;39.88;22.42;;;;;;;;;;7360190;19;20010;-83
2023/12/19 02:53:56;;;;;;;38.90;21.90;;;;;;;;;;7364667;19;20041;-83
2023/12/19 02:56:21;;;;;;;40.58;23.25;;;;;;;;;;7354103;19;20013;-84
2023/12/19 02:58:46;;;;;;;42.22;23.42;;;;;;;;;;7340048;19;20014;-87
2023/12/19 03:01:11;;;;;;;42.17;22.38;;;;;;;;;;7168437;19;20835;-87
2023/12/19 03:03:39;;;;;;;50.13;22.73;;;;;;;;;;7183811;19;20307;-83
2023/12/19 03:06:04;;;;;;;44.58;22.90;;;;;;;;;;7192495;19;20013;-83
2023/12/19 03:08:29;;;;;;;53.67;23.98;;;;;;;;;;7191778;19;20019;-85
2023/12/19 03:10:55;;;;;;;74.55;25.05;;;;;;;;;;7191845;19;20002;-86
2023/12/19 03:13:20;;;;;;;77.80;26.58;;;;;;;;;;7192838;19;20876;-87
2023/12/19 03:15:46;;;;;;;69.07;26.90;;;;;;;;;;7190406;19;20918;-88
2023/12/19 03:18:11;;;;;;;42.40;23.77;;;;;;;;;;7192751;19;20295;-86
2023/12/19 03:20:36;;;;;;;39.05;21.38;;;;;;;;;;7190496;19;20023;-88
2023/12/19 03:23:01;;;;;;;75.90;26.23;;;;;;;;;;7181408;19;21349;-86
2023/12/19 03:25:27;;;;;;;46.88;22.98;;;;;;;;;;7179807;19;22107;-87
2023/12/19 03:27:52;;;;;;;41.20;22.52;;;;;;;;;;7194975;19;20256;-87
2023/12/19 03:30:17;;;;;;;40.40;22.20;;;;;;;;;;7178092;19;20300;-82
2023/12/19 03:32:42;;;;;;;44.42;24.35;;;;;;;;;;7188616;19;20363;-86
2023/12/19 03:35:08;;;;;;;35.38;20.75;;;;;;;;;;7202195;19;20003;-87
2023/12/19 03:37:33;;;;;;;41.55;21.55;;;;;;;;;;7184065;19;20007;-87
2023/12/19 03:39:59;;;;;;;39.67;22.17;;;;;;;;;;7191118;19;21376;-87
2023/12/19 03:42:24;;;;;;;36.40;21.33;;;;;;;;;;7187198;19;20005;-86
2023/12/19 03:44:49;;;;;;;38.00;20.63;;;;;;;;;;7182622;19;20014;-89
2023/12/19 03:47:15;;;;;;;35.15;20.88;;;;;;;;;;7186815;19;20007;-81
2023/12/19 03:49:40;;;;;;;30.23;18.58;;;;;;;;;;7191447;19;20894;-85
2023/12/19 03:52:05;;;;;;;37.03;21.00;;;;;;;;;;7194832;19;20017;-87
2023/12/19 03:54:30;;;;;;;34.53;20.35;;;;;;;;;;7182977;19;20271;-84
2023/12/19 03:56:55;;;;;;;37.50;20.77;;;;;;;;;;7192572;19;20002;-83
2023/12/19 03:59:21;;;;;;;37.47;20.92;;;;;;;;;;7224100;19;20017;-85
2023/12/19 04:01:48;;;;;;;42.70;21.65;;;;;;;;;;7364943;19;20395;-79
2023/12/19 04:04:13;;;;;;;35.95;19.70;;;;;;;;;;7361262;19;20043;-81
2023/12/19 04:06:45;;;;;;;36.58;20.52;;;;;;;;;;7358534;19;20563;-81
2023/12/19 04:09:10;;;;;;;42.15;20.02;;;;;;;;;;7354350;19;20007;-82
2023/12/19 04:11:35;;;;;;;36.88;20.25;;;;;;;;;;7359805;19;20090;-77
2023/12/19 04:14:00;;;;;;;35.42;18.85;;;;;;;;;;7355093;19;20027;-81
2023/12/19 04:16:26;;;;;;;30.58;18.77;;;;;;;;;;7345979;19;20085;-87
2023/12/19 04:18:51;;;;;;;35.42;18.48;;;;;;;;;;7359782;19;20010;-86
2023/12/19 04:21:16;;;;;;;28.90;17.45;;;;;;;;;;7362188;19;20018;-81
2023/12/19 04:23:41;;;;;;;46.35;19.45;;;;;;;;;;7362035;19;20029;-78
2023/12/19 04:26:06;;;;;;;37.72;18.27;;;;;;;;;;7358567;19;20275;-80
2023/12/19 04:28:32;;;;;;;33.28;18.20;;;;;;;;;;7348461;19;20120;-84
2023/12/19 04:30:57;;;;;;;31.85;16.85;;;;;;;;;;7347896;19;20017;-78
2023/12/19 04:33:22;;;;;;;37.63;19.27;;;;;;;;;;7361546;19;20337;-81
2023/12/19 04:35:47;;;;;;;37.75;17.20;;;;;;;;;;7356069;19;20287;-80
2023/12/19 04:38:12;;;;;;;36.85;17.33;;;;;;;;;;7365509;19;20267;-86
2023/12/19 04:40:37;;;;;;;47.70;19.45;;;;;;;;;;7361191;19;20752;-80
2023/12/19 04:43:03;;;;;;;46.95;18.52;;;;;;;;;;7368707;19;20011;-85
2023/12/19 04:45:28;;;;;;;42.60;17.35;;;;;;;;;;7349949;19;20006;-78
2023/12/19 04:47:53;;;;;;;35.03;16.30;;;;;;;;;;7367625;19;20010;-78
2023/12/19 04:50:18;;;;;;;43.57;17.33;;;;;;;;;;7367292;19;20029;-83
2023/12/19 04:52:43;;;;;;;26.15;13.93;;;;;;;;;;7352129;19;20294;-84
2023/12/19 04:55:09;;;;;;;27.58;14.77;;;;;;;;;;7361015;19;20074;-82
2023/12/19 04:57:34;;;;;;;31.25;14.45;;;;;;;;;;7360839;19;20010;-82
2023/12/19 05:00:00;;;;;;;27.10;13.65;;;;;;;;;;7357807;19;20827;-80
2023/12/19 05:02:25;;;;;;;23.33;13.20;;;;;;;;;;7364343;19;20069;-83
2023/12/19 05:04:50;;;;;;;37.22;14.80;;;;;;;;;;7348592;19;20827;-82
2023/12/19 05:07:15;;;;;;;32.45;14.85;;;;;;;;;;7366136;19;20130;-80
2023/12/19 05:09:40;;;;;;;28.05;13.73;;;;;;;;;;7353612;19;20317;-79
2023/12/19 05:12:06;;;;;;;23.00;12.65;;;;;;;;;;7351984;19;20656;-82
2023/12/19 05:14:31;;;;;;;23.13;12.35;;;;;;;;;;7350329;19;20003;-83
2023/12/19 05:16:56;;;;;;;23.17;13.23;;;;;;;;;;7347221;19;20021;-80
2023/12/19 05:19:21;;;;;;;26.83;13.20;;;;;;;;;;7367059;19;20006;-80
2023/12/19 05:21:47;;;;;;;22.75;12.98;;;;;;;;;;7344912;19;20010;-82
2023/12/19 05:24:12;;;;;;;21.20;12.10;;;;;;;;;;7361448;19;20271;-78
2023/12/19 05:26:37;;;;;;;27.33;13.98;;;;;;;;;;7362651;19;20271;-80
2023/12/19 05:29:02;;;;;;;25.83;12.57;;;;;;;;;;7358344;19;20094;-83
2023/12/19 05:31:28;;;;;;;26.02;13.45;;;;;;;;;;7351967;19;20286;-85
2023/12/19 05:33:54;;;;;;;27.52;13.80;;;;;;;;;;7356877;19;20062;-78
2023/12/19 05:36:19;;;;;;;23.70;13.30;;;;;;;;;;7362366;19;20744;-81
2023/12/19 05:38:44;;;;;;;27.20;13.82;;;;;;;;;;7361514;19;20124;-81
2023/12/19 05:41:14;;;;;;;27.42;13.80;;;;;;;;;;7354260;19;20006;-83
2023/12/19 05:43:39;;;;;;;28.05;13.57;;;;;;;;;;7355101;19;20270;-88
2023/12/19 05:46:05;;;;;;;26.45;14.32;;;;;;;;;;7356575;19;20006;-80
2023/12/19 05:48:30;;;;;;;31.70;15.00;;;;;;;;;;7359036;19;20007;-85
2023/12/19 05:50:55;;;;;;;35.25;15.15;;;;;;;;;;7358681;19;20025;-79
2023/12/19 05:53:20;;;;;;;36.72;16.02;;;;;;;;;;7361309;19;20267;-80
2023/12/19 05:55:45;;;;;;;38.67;16.10;;;;;;;;;;7355636;19;20669;-81
2023/12/19 05:58:10;;;;;;;38.20;16.88;;;;;;;;;;7359975;19;20010;-81
2023/12/19 06:00:36;;;;;;;50.35;18.50;;;;;;;;;;7347634;19;20296;-84
2023/12/19 06:03:01;;;;;;;59.80;18.65;;;;;;;;;;7368621;19;20025;-80
2023/12/19 06:05:26;;;;;;;39.67;17.75;;;;;;;;;;7361793;19;21048;-79
2023/12/19 06:07:51;;;;;;;36.45;16.88;;;;;;;;;;7349552;19;20003;-77
2023/12/19 06:10:17;;;;;;;36.08;16.55;;;;;;;;;;7343347;19;20469;-86
2023/12/19 06:12:42;;;;;;;47.20;18.45;;;;;;;;;;7357458;19;20961;-77
2023/12/19 06:15:12;;;;;;;52.08;19.05;;;;;;;;;;7335580;19;20012;-86
2023/12/19 06:17:41;;;;;;;51.05;18.15;;;;;;;;;;7349279;19;20664;-84
2023/12/19 06:20:07;;;;;;;46.92;19.08;;;;;;;;;;7341667;19;20050;-83
2023/12/19 06:22:32;;;;;;;71.63;19.63;;;;;;;;;;7354684;19;20015;-81
2023/12/19 06:24:58;;;;;;;37.47;16.75;;;;;;;;;;7361171;19;20011;-79
2023/12/19 06:27:23;;;;;;;53.28;18.60;;;;;;;;;;7366270;19;20119;-80
2023/12/19 06:29:48;;;;;;;39.38;17.70;;;;;;;;;;7338692;19;20006;-78
2023/12/19 06:32:14;;;;;;;85.45;20.83;;;;;;;;;;7350067;19;20002;-81
2023/12/19 06:34:39;;;;;;;88.80;21.55;;;;;;;;;;7354505;19;20382;-80
2023/12/19 06:37:04;;;;;;;139.80;24.90;;;;;;;;;;7365950;19;20024;-81
2023/12/19 06:39:29;;;;;;;218.55;29.63;;;;;;;;;;7361863;19;20287;-82
2023/12/19 06:41:54;;;;;;;110.28;24.42;;;;;;;;;;7355859;19;19998;-82
2023/12/19 06:44:20;;;;;;;246.48;30.40;;;;;;;;;;7349619;19;20086;-84
2023/12/19 06:46:46;;;;;;;181.90;27.10;;;;;;;;;;7352714;19;20007;-79
2023/12/19 06:49:12;;;;;;;202.40;28.02;;;;;;;;;;7366886;19;20014;-85
2023/12/19 06:51:38;;;;;;;184.63;25.42;;;;;;;;;;7360367;19;20014;-83
2023/12/19 06:54:03;;;;;;;224.10;26.95;;;;;;;;;;7370904;19;20470;-79
2023/12/19 06:56:28;;;;;;;112.20;21.10;;;;;;;;;;7364006;19;20035;-83
2023/12/19 06:58:54;;;;;;;204.52;26.45;;;;;;;;;;7353018;19;19998;-88
2023/12/19 07:01:19;;;;;;;87.47;20.88;;;;;;;;;;7334910;19;20306;-87
2023/12/19 07:03:44;;;;;;;159.80;24.60;;;;;;;;;;7337876;19;20078;-82
2023/12/19 07:06:16;;;;;;;237.73;31.45;;;;;;;;;;7361441;19;20406;-80
2023/12/19 07:08:41;;;;;;;93.97;19.80;;;;;;;;;;7331413;19;20006;-78
2023/12/19 07:11:07;;;;;;;276.65;32.60;;;;;;;;;;7363027;19;21826;-85
2023/12/19 07:13:32;;;;;;;192.18;25.60;;;;;;;;;;7369821;19;20034;-83
2023/12/19 07:15:58;;;;;;;111.70;20.65;;;;;;;;;;7336408;19;20940;-89
2023/12/19 07:18:23;;;;;;;77.32;19.85;;;;;;;;;;7320014;19;20018;-82
2023/12/19 07:20:48;;;;;;;46.33;16.23;;;;;;;;;;7351088;19;20081;-82
2023/12/19 07:23:13;;;;;;;116.80;20.70;;;;;;;;;;7359750;19;20321;-83
2023/12/19 07:25:38;;;;;;;43.47;16.50;;;;;;;;;;7348612;19;20007;-83
2023/12/19 07:28:03;;;;;;;95.28;19.50;;;;;;;;;;7293777;19;20431;-80
2023/12/19 07:30:29;;;;;;;195.63;24.48;;;;;;;;;;7326047;19;20543;-82
2023/12/19 07:32:54;;;;;;;45.83;15.82;;;;;;;;;;7359988;19;20149;-81
2023/12/19 07:35:19;;;;;;;48.97;14.93;;;;;;;;;;7365372;19;20002;-84
2023/12/19 07:37:47;;;;;;;41.85;14.60;;;;;;;;;;7360666;19;20014;-81
2023/12/19 07:40:13;;;;;;;40.83;14.10;;;;;;;;;;7368724;19;20007;-83
2023/12/19 07:42:42;;;;;;;29.65;13.02;;;;;;;;;;7367044;19;20529;-83
2023/12/19 07:45:07;;;;;;;29.42;13.13;;;;;;;;;;7351679;19;20355;-83
2023/12/19 07:47:32;;;;;;;31.88;13.27;;;;;;;;;;7360744;19;20012;-77
2023/12/19 07:49:57;;;;;;;37.50;14.27;;;;;;;;;;7351890;19;20015;-83
2023/12/19 07:52:23;;;;;;;94.55;18.02;;;;;;;;;;7367671;19;20015;-84
2023/12/19 07:54:48;;;;;;;96.95;18.25;;;;;;;;;;7365085;19;20037;-77
2023/12/19 07:57:13;;;;;;;97.97;18.00;;;;;;;;;;7326013;19;20007;-82
2023/12/19 07:59:39;;;;;;;32.28;12.88;;;;;;;;;;7343564;19;20526;-86
2023/12/19 08:02:04;;;;;;;60.30;15.85;;;;;;;;;;7366357;19;20259;-80
2023/12/19 08:04:29;;;;;;;37.08;13.43;;;;;;;;;;7368393;19;20017;-84
2023/12/19 08:06:54;;;;;;;27.52;12.00;;;;;;;;;;7344852;19;20052;-86
2023/12/19 08:09:19;;;;;;;27.13;12.02;;;;;;;;;;7351067;19;20006;-83
2023/12/19 08:11:44;;;;;;;33.88;12.77;;;;;;;;;;7350419;19;20002;-84
2023/12/19 08:14:10;;;;;;;41.33;14.05;;;;;;;;;;7354395;19;20011;-84
2023/12/19 08:16:36;;;;;;;29.58;12.10;;;;;;;;;;7354131;19;20357;-80
2023/12/19 08:19:01;;;;;;;27.30;11.70;;;;;;;;;;7349723;19;20807;-80
2023/12/19 08:21:26;;;;;;;43.75;13.52;;;;;;;;;;7361487;19;20007;-84
2023/12/19 08:23:52;;;;;;;40.25;13.98;;;;;;;;;;7365151;19;20110;-81
2023/12/19 08:26:17;;;;;;;43.42;14.73;;;;;;;;;;7362931;19;20831;-79
2023/12/19 08:28:42;;;;;;;31.65;13.05;;;;;;;;;;7347320;19;20030;-82
2023/12/19 08:31:07;;;;;;;26.88;12.02;;;;;;;;;;7346361;19;20002;-81
2023/12/19 08:33:33;;;;;;;40.47;13.18;;;;;;;;;;7366405;19;20014;-82
2023/12/19 08:35:58;;;;;;;32.38;12.23;;;;;;;;;;7363840;19;20362;-82
2023/12/19 08:38:23;;;;;;;29.35;12.20;;;;;;;;;;7368470;19;20501;-82
2023/12/19 08:40:48;;;;;;;30.05;12.52;;;;;;;;;;7353383;19;20006;-85
2023/12/19 08:43:13;;;;;;;39.10;13.10;;;;;;;;;;7370641;19;20748;-86
2023/12/19 08:45:39;;;;;;;29.55;11.95;;;;;;;;;;7356239;19;20011;-85
2023/12/19 08:48:04;;;;;;;35.00;12.55;;;;;;;;;;7359254;19;20881;-86
2023/12/19 08:50:30;;;;;;;32.50;11.25;;;;;;;;;;7366348;19;20259;-81
2023/12/19 08:52:55;;;;;;;37.92;12.18;;;;;;;;;;7361914;19;20606;-80
2023/12/19 08:55:20;;;;;;;36.08;11.82;;;;;;;;;;7366206;19;20006;-83
2023/12/19 08:57:45;;;;;;;122.80;18.05;;;;;;;;;;7357802;19;20011;-84
2023/12/19 09:00:18;;;;;;;150.15;16.67;;;;;;;;;;7350906;19;20003;-84
2023/12/19 09:02:43;;;;;;;84.28;14.70;;;;;;;;;;7359524;19;20006;-79
2023/12/19 09:05:10;;;;;;;53.13;12.20;;;;;;;;;;7356021;19;20019;-83
2023/12/19 09:07:35;;;;;;;84.50;14.95;;;;;;;;;;7368120;19;20006;-82
2023/12/19 09:10:00;;;;;;;98.88;15.73;;;;;;;;;;7358094;19;20423;-80
2023/12/19 09:12:25;;;;;;;151.30;17.50;;;;;;;;;;7361216;19;20275;-80
2023/12/19 09:14:50;;;;;;;283.38;24.35;;;;;;;;;;7351950;19;20290;-82
2023/12/19 09:17:15;;;;;;;215.50;21.35;;;;;;;;;;7362171;19;20275;-79
2023/12/19 09:19:40;;;;;;;161.65;16.85;;;;;;;;;;7363950;19;20630;-84
2023/12/19 09:22:06;;;;;;;161.87;18.83;;;;;;;;;;7351538;19;20021;-79
2023/12/19 09:24:31;;;;;;;237.25;21.88;;;;;;;;;;7361279;19;20876;-82
2023/12/19 09:26:56;;;;;;;233.93;21.65;;;;;;;;;;7360701;19;20010;-82
2023/12/19 09:29:23;;;;;;;110.53;15.20;;;;;;;;;;7352907;19;20750;-84
2023/12/19 09:31:48;;;;;;;201.70;19.83;;;;;;;;;;7361481;19;20632;-84
2023/12/19 09:34:14;;;;;;;117.20;14.65;;;;;;;;;;7366548;19;20073;-83
2023/12/19 09:36:39;;;;;;;208.43;20.15;;;;;;;;;;7361567;19;20006;-83
2023/12/19 09:39:04;;;;;;;152.63;18.10;;;;;;;;;;7358391;19;20003;-83
2023/12/19 09:41:29;;;;;;;195.50;19.63;;;;;;;;;;7361748;19;20014;-79
2023/12/19 09:43:55;;;;;;;260.33;21.33;;;;;;;;;;7356182;19;20355;-84
2023/12/19 09:46:22;;;;;;;225.18;20.92;;;;;;;;;;7355506;19;20018;-78
2023/12/19 09:48:49;;;;;;;298.35;23.55;;;;;;;;;;7364771;19;20010;-83
2023/12/19 09:51:28;;;;;;;275.33;22.88;;;;;;;;;;7362026;19;20011;-83
2023/12/19 09:53:55;;;;;;;227.38;19.77;;;;;;;;;;7325032;19;20010;-82
2023/12/19 09:56:20;;;;;;;235.55;18.98;;;;;;;;;;7342503;19;20041;-85
2023/12/19 09:58:47;;;;;;;129.27;15.57;;;;;;;;;;7348866;19;20018;-89
2023/12/19 10:01:13;;;;;;;188.80;18.20;;;;;;;;;;7361592;19;20474;-81
2023/12/19 10:03:38;;;;;;;309.95;26.98;;;;;;;;;;7360485;19;20111;-85
2023/12/19 10:06:06;;;;;;;265.17;21.17;;;;;;;;;;7346393;19;20078;-81
2023/12/19 10:08:33;;;;;;;111.13;13.95;;;;;;;;;;7360894;19;20117;-85
2023/12/19 10:10:58;;;;;;;295.55;28.63;;;;;;;;;;7333443;19;20013;-82
2023/12/19 10:13:27;;;;;;;253.68;21.15;;;;;;;;;;7363364;19;20585;-80
2023/12/19 10:15:59;;;;;;;167.00;17.25;;;;;;;;;;7354268;19;20014;-88
2023/12/19 10:18:25;;;;;;;364.90;28.42;;;;;;;;;;7359836;19;20010;-82
2023/12/19 10:21:01;;;;;;;203.35;16.67;;;;;;;;;;7369505;19;20094;-84
2023/12/19 10:23:26;;;;;;;172.85;18.80;;;;;;;;;;7354203;19;20090;-86
2023/12/19 10:25:54;;;;;;;368.85;28.08;;;;;;;;;;7355629;19;20102;-82
2023/12/19 10:28:19;;;;;;;240.05;22.15;;;;;;;;;;7361530;19;20010;-80
2023/12/19 10:30:44;;;;;;;159.73;16.65;;;;;;;;;;7333025;19;20628;-84
2023/12/19 10:33:09;;;;;;;210.02;21.02;;;;;;;;;;7364804;19;20276;-80
2023/12/19 10:35:38;;;;;;;248.98;21.17;;;;;;;;;;7367198;19;20113;-79
2023/12/19 10:38:03;;;;;;;228.63;18.77;;;;;;;;;;7360476;19;20554;-86
2023/12/19 10:40:28;;;;;;;201.98;18.63;;;;;;;;;;7364669;19;20010;-83
2023/12/19 10:42:55;;;;;;;182.35;18.25;;;;;;;;;;7354451;19;20010;-85
2023/12/19 10:45:21;;;;;;;260.15;21.33;;;;;;;;;;7352217;19;21889;-83
2023/12/19 10:47:46;;;;;;;252.73;22.00;;;;;;;;;;7371276;19;20010;-82
2023/12/19 10:50:12;;;;;;;151.52;17.70;;;;;;;;;;7358821;19;20021;-82
2023/12/19 10:52:39;;;;;;;171.18;17.40;;;;;;;;;;7369729;19;20470;-82
2023/12/19 10:55:09;;;;;;;353.55;28.13;;;;;;;;;;7354516;19;20117;-80
2023/12/19 10:57:36;;;;;;;309.25;24.70;;;;;;;;;;7371541;19;20497;-83
2023/12/19 11:00:09;;;;;;;268.10;25.00;;;;;;;;;;7337766;19;20018;-83
2023/12/19 11:02:35;;;;;;;242.25;21.80;;;;;;;;;;7366507;19;20074;-79
2023/12/19 11:05:20;;;;;;;336.20;24.55;;;;;;;;;;7367301;19;20538;-85
2023/12/19 11:07:46;;;;;;;300.80;24.52;;;;;;;;;;7363588;19;20489;-81
2023/12/19 11:10:11;;;;;;;362.88;27.42;;;;;;;;;;7354819;19;20348;-82
2023/12/19 11:12:37;;;;;;;200.27;20.23;;;;;;;;;;7357577;19;20010;-85
2023/12/19 11:15:03;;;;;;;369.75;28.75;;;;;;;;;;7355303;19;20017;-83
2023/12/19 11:17:33;;;;;;;265.13;24.27;;;;;;;;;;7364647;19;20014;-82
2023/12/19 11:20:03;;;;;;;263.88;23.77;;;;;;;;;;7360150;19;20033;-86
2023/12/19 11:22:30;;;;;;;342.98;28.58;;;;;;;;;;7369114;19;20010;-85
2023/12/19 11:25:02;;;;;;;292.02;26.50;;;;;;;;;;7363662;19;20465;-80
2023/12/19 11:27:32;;;;;;;455.40;34.67;;;;;;;;;;7364789;19;20014;-82
2023/12/19 11:29:58;;;;;;;584.90;43.33;;;;;;;;;;7346938;19;20072;-85
2023/12/19 11:32:26;;;;;;;407.88;33.58;;;;;;;;;;7353127;19;20010;-82
2023/12/19 11:34:51;;;;;;;225.68;24.35;;;;;;;;;;7369217;19;20040;-80
2023/12/19 11:37:19;;;;;;;334.40;29.10;;;;;;;;;;7359095;19;20516;-80
2023/12/19 11:39:45;;;;;;;210.65;24.30;;;;;;;;;;7360253;19;20279;-87
2023/12/19 11:42:30;;;;;;;341.98;34.40;;;;;;;;;;7362650;19;20011;-79
2023/12/19 11:44:55;;;;;;;376.20;32.33;;;;;;;;;;7355000;19;20353;-82
2023/12/19 11:47:20;;;;;;;270.05;29.95;;;;;;;;;;7357555;19;20021;-80
2023/12/19 11:49:45;;;;;;;261.92;29.23;;;;;;;;;;7368750;19;20295;-83
2023/12/19 11:52:36;;;;;;;198.95;24.45;;;;;;;;;;7365590;19;20075;-82
2023/12/19 11:55:02;;;;;;;299.73;32.40;;;;;;;;;;7353334;19;20483;-84
2023/12/19 11:57:28;;;;;;;196.77;24.98;;;;;;;;;;7368663;19;20019;-80
2023/12/19 11:59:54;;;;;;;540.40;46.05;;;;;;;;;;7355322;19;20021;-81
2023/12/19 12:02:25;;;;;;;533.92;47.58;;;;;;;;;;7362534;19;20275;-80
2023/12/19 12:05:01;;;;;;;268.95;30.23;;;;;;;;;;7353894;19;20014;-85
2023/12/19 12:07:26;;;;;;;119.22;23.05;;;;;;;;;;7368992;19;20011;-81
2023/12/19 12:09:59;;;;;;;167.80;24.35;;;;;;;;;;7363215;19;20690;-85
2023/12/19 12:12:32;;;;;;;140.55;21.73;;;;;;;;;;7368905;19;20446;-82
2023/12/19 12:15:11;;;;;;;243.93;29.70;;;;;;;;;;7333401;19;20471;-79
2023/12/19 12:17:36;;;;;;;458.10;39.50;;;;;;;;;;7357686;19;20007;-84
2023/12/19 12:20:03;;;;;;;271.92;31.33;;;;;;;;;;7337975;19;20086;-91
2023/12/19 12:22:28;;;;;;;227.38;30.63;;;;;;;;;;7346341;19;20490;-81
2023/12/19 12:24:54;;;;;;;82.28;20.00;;;;;;;;;;7354621;19;20388;-84
2023/12/19 12:27:20;;;;;;;193.25;26.33;;;;;;;;;;7350881;19;20003;-86
2023/12/19 12:29:45;;;;;;;288.15;31.88;;;;;;;;;;7306743;19;20021;-87
2023/12/19 12:32:11;;;;;;;71.57;22.15;;;;;;;;;;7339558;19;20011;-85
2023/12/19 12:34:36;;;;;;;289.77;33.88;;;;;;;;;;7346317;19;20031;-84
2023/12/19 12:37:01;;;;;;;72.25;19.98;;;;;;;;;;7348391;19;20006;-85
2023/12/19 12:39:26;;;;;;;113.63;22.73;;;;;;;;;;7355319;19;20015;-84
2023/12/19 12:41:59;;;;;;;151.80;25.30;;;;;;;;;;7365240;19;20006;-81
2023/12/19 12:44:25;;;;;;;80.03;22.20;;;;;;;;;;7354715;19;20529;-87
2023/12/19 12:46:50;;;;;;;251.13;32.67;;;;;;;;;;7358413;19;20066;-80
2023/12/19 12:49:16;;;;;;;83.75;20.83;;;;;;;;;;7356586;19;20003;-83
2023/12/19 12:51:43;;;;;;;90.70;22.27;;;;;;;;;;7362135;19;20147;-83
2023/12/19 12:54:08;;;;;;;52.10;18.92;;;;;;;;;;7363230;19;20034;-86
2023/12/19 12:56:34;;;;;;;105.47;24.15;;;;;;;;;;7369871;19;20364;-80
2023/12/19 12:59:03;;;;;;;96.05;23.73;;;;;;;;;;7348721;19;20925;-81
2023/12/19 13:01:29;;;;;;;101.28;24.05;;;;;;;;;;7351102;19;20117;-88
2023/12/19 13:03:54;;;;;;;125.72;24.40;;;;;;;;;;7364831;19;20456;-80
2023/12/19 13:06:20;;;;;;;150.35;26.35;;;;;;;;;;7350780;19;20038;-83
2023/12/19 13:08:45;;;;;;;151.05;24.23;;;;;;;;;;7361268;19;20271;-85
2023/12/19 13:11:10;;;;;;;51.45;18.73;;;;;;;;;;7343030;19;20006;-86
2023/12/19 13:13:35;;;;;;;74.72;20.73;;;;;;;;;;7357451;19;20010;-83
2023/12/19 13:16:02;;;;;;;164.10;27.80;;;;;;;;;;7347219;19;20095;-81
2023/12/19 13:18:27;;;;;;;349.83;37.63;;;;;;;;;;7362493;19;20745;-81
2023/12/19 13:20:52;;;;;;;52.53;18.40;;;;;;;;;;7347774;19;20018;-86
2023/12/19 13:23:18;;;;;;;78.78;20.15;;;;;;;;;;7349812;19;20013;-80
2023/12/19 13:25:44;;;;;;;104.65;21.83;;;;;;;;;;7334251;19;20382;-81
2023/12/19 13:28:09;;;;;;;125.65;23.08;;;;;;;;;;7333052;19;20029;-82
2023/12/19 13:30:35;;;;;;;122.55;25.13;;;;;;;;;;7349311;19;20003;-85
2023/12/19 13:33:00;;;;;;;377.05;39.90;;;;;;;;;;7366115;19;20078;-90
2023/12/19 13:35:25;;;;;;;87.47;21.05;;;;;;;;;;7362544;19;20010;-86
2023/12/19 13:37:50;;;;;;;423.70;43.47;;;;;;;;;;7368972;19;20006;-83
2023/12/19 13:40:15;;;;;;;173.55;26.65;;;;;;;;;;7354836;19;20206;-85
2023/12/19 13:42:41;;;;;;;68.53;17.98;;;;;;;;;;7362613;19;20010;-80
2023/12/19 13:45:06;;;;;;;249.43;27.42;;;;;;;;;;7353537;19;20017;-85
2023/12/19 13:47:31;;;;;;;66.20;19.65;;;;;;;;;;7354144;19;20851;-82
2023/12/19 13:49:56;;;;;;;68.07;20.45;;;;;;;;;;7349788;19;20109;-81
2023/12/19 13:52:21;;;;;;;134.77;24.13;;;;;;;;;;7357712;19;20018;-85
2023/12/19 13:54:47;;;;;;;71.17;21.43;;;;;;;;;;7358585;19;20323;-89
2023/12/19 13:57:12;;;;;;;117.50;23.65;;;;;;;;;;7341698;19;20346;-86
2023/12/19 13:59:38;;;;;;;208.63;30.95;;;;;;;;;;7357452;19;20459;-83
2023/12/19 14:02:03;;;;;;;270.48;29.70;;;;;;;;;;7325391;19;20279;-85
2023/12/19 14:04:29;;;;;;;80.88;20.67;;;;;;;;;;7356278;19;20009;-86
2023/12/19 14:06:54;;;;;;;70.28;21.65;;;;;;;;;;7361775;19;20011;-85
2023/12/19 14:09:20;;;;;;;53.45;19.45;;;;;;;;;;7361823;19;20438;-85
2023/12/19 14:11:45;;;;;;;55.25;19.75;;;;;;;;;;7364133;19;20267;-82
2023/12/19 14:14:10;;;;;;;48.30;18.95;;;;;;;;;;7349795;19;20074;-84
2023/12/19 14:16:36;;;;;;;59.92;20.35;;;;;;;;;;7359266;19;20002;-83
2023/12/19 14:19:01;;;;;;;51.72;18.55;;;;;;;;;;7360195;19;20013;-84
2023/12/19 14:21:26;;;;;;;83.07;24.35;;;;;;;;;;7359453;19;20275;-81
2023/12/19 14:23:51;;;;;;;55.50;21.30;;;;;;;;;;7364935;19;20122;-81
2023/12/19 14:26:16;;;;;;;76.38;22.35;;;;;;;;;;7359205;19;20328;-81
2023/12/19 14:28:42;;;;;;;59.25;21.35;;;;;;;;;;7354242;19;20272;-87
2023/12/19 14:31:12;;;;;;;104.05;26.00;;;;;;;;;;7345204;19;20007;-86
2023/12/19 14:33:37;;;;;;;58.58;21.48;;;;;;;;;;7357401;19;20473;-86
2023/12/19 14:36:02;;;;;;;61.17;21.37;;;;;;;;;;7349603;19;20007;-81
2023/12/19 14:38:27;;;;;;;47.58;20.70;;;;;;;;;;7354925;19;20296;-81
2023/12/19 14:40:53;;;;;;;44.40;19.98;;;;;;;;;;7361835;19;20204;-84
2023/12/19 14:43:19;;;;;;;54.90;20.77;;;;;;;;;;7360073;19;20074;-80
2023/12/19 14:45:44;;;;;;;42.80;19.80;;;;;;;;;;7352672;19;20264;-86
2023/12/19 14:48:09;;;;;;;40.47;19.08;;;;;;;;;;7360441;19;20501;-86
2023/12/19 14:50:35;;;;;;;87.95;22.13;;;;;;;;;;7365834;19;20813;-86
2023/12/19 14:53:00;;;;;;;76.93;22.38;;;;;;;;;;7366649;19;20427;-80
2023/12/19 14:55:25;;;;;;;72.00;22.70;;;;;;;;;;7350866;19;21195;-81
2023/12/19 14:57:50;;;;;;;85.03;23.95;;;;;;;;;;7362207;19;20270;-82
2023/12/19 15:00:16;;;;;;;68.45;22.73;;;;;;;;;;7352546;19;20007;-84
2023/12/19 15:02:41;;;;;;;238.02;31.83;;;;;;;;;;7365484;19;20252;-84
2023/12/19 15:05:07;;;;;;;366.83;41.40;;;;;;;;;;7368098;19;20018;-80
2023/12/19 15:07:32;;;;;;;208.05;30.05;;;;;;;;;;7363401;19;20303;-80
2023/12/19 15:09:58;;;;;;;191.80;29.83;;;;;;;;;;7362554;19;20002;-84
2023/12/19 15:12:23;;;;;;;71.30;22.95;;;;;;;;;;7365910;19;20017;-83
2023/12/19 15:14:48;;;;;;;268.03;35.30;;;;;;;;;;7360909;19;20276;-84
2023/12/19 15:17:13;;;;;;;177.73;30.15;;;;;;;;;;7361858;19;20775;-89
2023/12/19 15:19:38;;;;;;;173.27;29.17;;;;;;;;;;7367364;19;20263;-83
2023/12/19 15:22:03;;;;;;;90.32;22.80;;;;;;;;;;7361047;19;20276;-83
2023/12/19 15:24:29;;;;;;;290.63;37.42;;;;;;;;;;7363596;19;20724;-80
2023/12/19 15:26:55;;;;;;;49.80;21.50;;;;;;;;;;7371710;19;20478;-84
2023/12/19 15:29:20;;;;;;;309.83;38.92;;;;;;;;;;7354930;19;20021;-86
2023/12/19 15:31:46;;;;;;;203.73;34.33;;;;;;;;;;7366627;19;20030;-82
2023/12/19 15:34:11;;;;;;;158.52;25.55;;;;;;;;;;7358997;19;20007;-87
2023/12/19 15:36:37;;;;;;;289.88;35.00;;;;;;;;;;7356668;19;20017;-82
2023/12/19 15:39:03;;;;;;;164.32;30.20;;;;;;;;;;7355775;19;20355;-87
2023/12/19 15:41:28;;;;;;;156.68;27.63;;;;;;;;;;7351892;19;20474;-82
2023/12/19 15:43:55;;;;;;;183.50;31.70;;;;;;;;;;7363312;19;20010;-79
2023/12/19 15:46:20;;;;;;;418.85;45.75;;;;;;;;;;7359818;19;20343;-86
2023/12/19 15:48:46;;;;;;;264.30;37.20;;;;;;;;;;7368870;19;20493;-83
2023/12/19 15:51:18;;;;;;;251.38;32.95;;;;;;;;;;7348852;19;20607;-81
2023/12/19 15:53:44;;;;;;;108.50;25.77;;;;;;;;;;7331078;19;20040;-85
2023/12/19 15:56:09;;;;;;;189.55;31.58;;;;;;;;;;7333360;19;20066;-82
2023/12/19 15:58:36;;;;;;;159.80;27.33;;;;;;;;;;7310969;19;20122;-80
2023/12/19 16:01:01;;;;;;;369.33;44.15;;;;;;;;;;7351499;19;20007;-84
2023/12/19 16:03:26;;;;;;;327.50;42.05;;;;;;;;;;7320477;19;20038;-83
2023/12/19 16:05:52;;;;;;;172.40;32.90;;;;;;;;;;7357108;19;20620;-81
2023/12/19 16:08:17;;;;;;;604.67;59.37;;;;;;;;;;7278690;19;20813;-87
2023/12/19 16:10:42;;;;;;;241.38;33.45;;;;;;;;;;7307288;19;20272;-87